Time;durP1;ratioP1;P1;durP2;ratioP2;P2;SDS_P1;SDS_P2;PMS_P1;PMS_P2;Temp;Humidity;BMP_temperature;BMP_pressure;BME280_temperature;BME280_humidity;BME280_pressure;Samples;Min_cycle;Max_cycle;Signal;HPM_P1;HPM_P2
2022/09/08 00:01:51;;;;;;;;;;;24.30;58.00;;;;;;5034726;28;19944;-74
2022/09/08 00:04:16;;;;;;;;;;;24.30;57.90;;;;;;5056478;28;19923;-75
2022/09/08 00:06:43;;;;;;;;;;;24.30;57.60;;;;;;5050579;28;20326;-75
2022/09/08 00:09:08;;;;;;;;;;;24.30;57.60;;;;;;5050526;28;19912;-74
2022/09/08 00:11:34;;;;;;;;;;;24.30;57.60;;;;;;5038871;28;19923;-74
2022/09/08 00:14:02;;;;;;;;;;;24.30;57.50;;;;;;5031135;28;19912;-75
2022/09/08 00:16:28;;;;;;;;;;;24.30;58.30;;;;;;5054321;28;19912;-74
2022/09/08 00:18:53;;;;;;;;;;;24.30;57.50;;;;;;5050526;28;20295;-74
2022/09/08 00:21:19;;;;;;;;;;;24.30;57.90;;;;;;5053147;28;20387;-74
2022/09/08 00:23:45;;;;;;;;;;;24.30;57.80;;;;;;5051621;28;19917;-75
2022/09/08 00:26:10;;;;;;;;;;;24.30;57.70;;;;;;5049871;28;20003;-74
2022/09/08 00:28:36;;;;;;;;;;;24.30;57.60;;;;;;5052418;28;19913;-74
2022/09/08 00:31:04;;;;;;;;;;;24.30;57.50;;;;;;5053280;28;19919;-74
2022/09/08 00:33:30;;;;;;;;;;;24.30;57.40;;;;;;5037477;28;19995;-74
2022/09/08 00:35:55;;;;;;;;;;;24.30;57.60;;;;;;5036237;28;19976;-75
2022/09/08 00:38:21;;;;;;;;;;;24.30;57.60;;;;;;5049557;28;19962;-73
2022/09/08 00:40:47;;;;;;;;;;;24.30;57.60;;;;;;5051465;28;19920;-76
2022/09/08 00:43:30;;;;;;;;;;;24.30;57.40;;;;;;5052027;28;19924;-74
2022/09/08 00:45:55;;;;;;;;;;;24.30;57.40;;;;;;5052906;28;20011;-74
2022/09/08 00:48:21;;;;;;;;;;;24.30;57.30;;;;;;5053580;28;19963;-74
2022/09/08 00:50:46;;;;;;;;;;;24.20;57.30;;;;;;5033165;28;19917;-74
2022/09/08 00:53:13;;;;;;;;;;;24.30;57.40;;;;;;5035656;28;19938;-73
2022/09/08 00:55:39;;;;;;;;;;;24.20;57.20;;;;;;5052650;28;21620;-74
2022/09/08 00:58:04;;;;;;;;;;;24.20;57.50;;;;;;5047833;28;19920;-74
2022/09/08 01:00:31;;;;;;;;;;;24.20;57.30;;;;;;5049087;28;19924;-74
2022/09/08 01:02:57;;;;;;;;;;;24.20;57.50;;;;;;5032373;28;19941;-74
2022/09/08 01:05:24;;;;;;;;;;;24.20;57.30;;;;;;5053992;28;20382;-75
2022/09/08 01:13:37;;;;;;;;;;;24.20;57.40;;;;;;5071282;28;19926;-74
2022/09/08 01:16:03;;;;;;;;;;;24.20;57.20;;;;;;5075286;28;19912;-74
2022/09/08 01:18:29;;;;;;;;;;;24.20;57.20;;;;;;5074460;28;19921;-74
2022/09/08 01:21:01;;;;;;;;;;;24.20;57.10;;;;;;5037875;28;19917;-75
2022/09/08 01:23:39;;;;;;;;;;;24.20;57.40;;;;;;5059809;28;20005;-74
2022/09/08 01:26:06;;;;;;;;;;;24.20;57.40;;;;;;5074861;28;19986;-75
2022/09/08 01:28:38;;;;;;;;;;;24.20;57.20;;;;;;5073759;28;20289;-74
2022/09/08 01:31:04;;;;;;;;;;;24.20;57.30;;;;;;5045223;28;19993;-74
2022/09/08 01:33:29;;;;;;;;;;;24.20;57.40;;;;;;5053793;28;20372;-74
2022/09/08 01:35:55;;;;;;;;;;;24.10;57.40;;;;;;5037274;28;19913;-74
2022/09/08 01:38:21;;;;;;;;;;;24.10;57.40;;;;;;5049968;28;19968;-74
2022/09/08 01:40:46;;;;;;;;;;;24.10;57.10;;;;;;5054929;28;19916;-75
2022/09/08 01:43:12;;;;;;;;;;;24.10;57.40;;;;;;5039189;28;19923;-74
2022/09/08 01:45:38;;;;;;;;;;;24.20;57.40;;;;;;5067581;28;19924;-75
2022/09/08 01:48:04;;;;;;;;;;;24.10;57.10;;;;;;5037291;28;19913;-74
2022/09/08 01:50:29;;;;;;;;;;;24.10;57.00;;;;;;5037361;28;19931;-74
2022/09/08 01:52:55;;;;;;;;;;;24.10;57.10;;;;;;5054315;28;19919;-74
2022/09/08 01:55:20;;;;;;;;;;;24.10;57.20;;;;;;5068159;28;19959;-74
2022/09/08 01:57:46;;;;;;;;;;;24.20;57.40;;;;;;5055178;28;19970;-75
2022/09/08 02:00:12;;;;;;;;;;;24.10;57.80;;;;;;5035639;28;19994;-74
2022/09/08 02:02:37;;;;;;;;;;;24.10;57.40;;;;;;5068346;28;20391;-74
2022/09/08 02:05:03;;;;;;;;;;;24.10;57.10;;;;;;5052415;28;19955;-75
2022/09/08 02:07:30;;;;;;;;;;;24.00;57.10;;;;;;5069802;28;19913;-74
2022/09/08 02:09:56;;;;;;;;;;;24.10;57.70;;;;;;5070350;28;20284;-74
2022/09/08 02:12:22;;;;;;;;;;;24.10;57.20;;;;;;5054883;28;19923;-74
2022/09/08 02:14:47;;;;;;;;;;;24.10;57.70;;;;;;5068431;28;19920;-74
2022/09/08 02:17:12;;;;;;;;;;;24.20;57.10;;;;;;5038118;28;20427;-74
2022/09/08 02:19:38;;;;;;;;;;;24.10;56.90;;;;;;5035680;28;20272;-74
2022/09/08 02:22:04;;;;;;;;;;;24.10;57.10;;;;;;5052942;28;20105;-74
2022/09/08 02:24:29;;;;;;;;;;;24.10;57.00;;;;;;5069317;28;19917;-74
2022/09/08 02:26:55;;;;;;;;;;;24.00;57.10;;;;;;5036731;28;20011;-74
2022/09/08 02:29:21;;;;;;;;;;;24.00;57.00;;;;;;5037113;28;19928;-74
2022/09/08 02:31:46;;;;;;;;;;;24.00;57.00;;;;;;5037812;28;20323;-74
2022/09/08 02:34:12;;;;;;;;;;;24.00;56.90;;;;;;5051521;28;19927;-74
2022/09/08 02:36:38;;;;;;;;;;;24.10;57.10;;;;;;5068900;28;20905;-74
2022/09/08 02:39:03;;;;;;;;;;;24.00;56.90;;;;;;5053978;28;19916;-74
2022/09/08 02:41:29;;;;;;;;;;;24.00;56.90;;;;;;5037036;28;19999;-74
2022/09/08 02:43:54;;;;;;;;;;;24.00;56.80;;;;;;5052924;28;19939;-74
2022/09/08 02:46:20;;;;;;;;;;;24.00;56.90;;;;;;5054383;28;19912;-74
2022/09/08 02:48:46;;;;;;;;;;;24.00;56.80;;;;;;5034614;28;20360;-75
2022/09/08 02:51:12;;;;;;;;;;;24.00;56.80;;;;;;5070278;28;19916;-75
2022/09/08 02:53:38;;;;;;;;;;;24.00;56.80;;;;;;5049863;28;19916;-74
2022/09/08 02:56:03;;;;;;;;;;;24.00;56.80;;;;;;5053190;28;20265;-74
2022/09/08 02:58:29;;;;;;;;;;;23.90;56.80;;;;;;5052851;28;19917;-74
2022/09/08 03:00:54;;;;;;;;;;;23.90;56.80;;;;;;5071237;28;20795;-74
2022/09/08 03:03:21;;;;;;;;;;;23.90;56.70;;;;;;5053228;28;20050;-74
2022/09/08 03:05:46;;;;;;;;;;;23.90;56.80;;;;;;5073316;28;19912;-74
2022/09/08 03:08:12;;;;;;;;;;;24.00;56.80;;;;;;5039191;28;19940;-74
2022/09/08 03:10:37;;;;;;;;;;;23.90;56.50;;;;;;5049201;28;19938;-75
2022/09/08 03:13:03;;;;;;;;;;;24.00;56.50;;;;;;5037437;28;19913;-73
2022/09/08 03:15:29;;;;;;;;;;;24.00;56.60;;;;;;5055427;28;19919;-74
2022/09/08 03:17:55;;;;;;;;;;;24.00;56.50;;;;;;5040572;28;19921;-74
2022/09/08 03:20:20;;;;;;;;;;;24.00;56.50;;;;;;5037402;28;19913;-74
2022/09/08 03:22:46;;;;;;;;;;;23.90;56.40;;;;;;5056358;28;19920;-75
2022/09/08 03:25:12;;;;;;;;;;;24.00;56.50;;;;;;5068066;28;20396;-74
2022/09/08 03:27:38;;;;;;;;;;;24.00;56.50;;;;;;5039108;28;19977;-74
2022/09/08 03:30:05;;;;;;;;;;;23.90;56.30;;;;;;5035488;28;20003;-74
2022/09/08 03:32:32;;;;;;;;;;;23.90;56.30;;;;;;5051949;28;19919;-74
2022/09/08 03:34:57;;;;;;;;;;;23.90;56.30;;;;;;5036673;28;19987;-74
2022/09/08 03:37:22;;;;;;;;;;;23.90;56.40;;;;;;5051406;28;19917;-74
2022/09/08 03:39:48;;;;;;;;;;;23.90;56.20;;;;;;5034288;28;19924;-75
2022/09/08 03:42:13;;;;;;;;;;;23.90;56.20;;;;;;5070888;28;20446;-74
2022/09/08 03:44:40;;;;;;;;;;;23.90;56.10;;;;;;5052641;28;20077;-75
2022/09/08 03:47:06;;;;;;;;;;;23.90;56.20;;;;;;5068542;28;19920;-73
2022/09/08 03:49:32;;;;;;;;;;;23.90;56.20;;;;;;5053365;28;19924;-74
2022/09/08 03:51:57;;;;;;;;;;;23.90;56.20;;;;;;5070576;28;20005;-74
2022/09/08 03:57:07;;;;;;;;;;;23.90;56.00;;;;;;5053390;28;20016;-74
2022/09/08 03:59:32;;;;;;;;;;;23.90;56.10;;;;;;5052709;28;19980;-74
2022/09/08 04:01:58;;;;;;;;;;;23.90;56.10;;;;;;5070544;28;19939;-73
2022/09/08 04:04:24;;;;;;;;;;;23.80;56.10;;;;;;5049853;28;20386;-73
2022/09/08 04:06:49;;;;;;;;;;;23.80;56.10;;;;;;5050277;28;19917;-74
2022/09/08 04:09:15;;;;;;;;;;;23.80;56.00;;;;;;5051080;28;19921;-74
2022/09/08 04:11:41;;;;;;;;;;;23.80;56.00;;;;;;5048687;28;19982;-74
2022/09/08 04:14:06;;;;;;;;;;;23.80;55.90;;;;;;5049958;28;19916;-75
2022/09/08 04:16:32;;;;;;;;;;;23.80;56.00;;;;;;5053638;28;19912;-74
2022/09/08 04:18:57;;;;;;;;;;;23.80;56.00;;;;;;5067747;28;20011;-75
2022/09/08 04:21:22;;;;;;;;;;;23.80;55.90;;;;;;5049539;28;20108;-74
2022/09/08 04:23:48;;;;;;;;;;;23.80;55.90;;;;;;5050218;28;19931;-73
2022/09/08 04:26:13;;;;;;;;;;;23.80;55.80;;;;;;5050741;28;19916;-73
2022/09/08 04:28:42;;;;;;;;;;;23.80;55.80;;;;;;5050502;28;20013;-73
2022/09/08 04:31:09;;;;;;;;;;;23.80;55.80;;;;;;5033070;28;19948;-74
2022/09/08 04:33:35;;;;;;;;;;;23.80;55.70;;;;;;5064760;28;19917;-75
2022/09/08 04:36:05;;;;;;;;;;;23.80;56.40;;;;;;5052377;28;19955;-74
2022/09/08 04:38:30;;;;;;;;;;;23.80;55.70;;;;;;5033842;28;19916;-74
2022/09/08 04:41:01;;;;;;;;;;;23.80;55.70;;;;;;5035595;28;19939;-74
2022/09/08 04:43:27;;;;;;;;;;;23.90;55.70;;;;;;5051649;28;19916;-74
2022/09/08 04:45:52;;;;;;;;;;;23.80;55.60;;;;;;5052127;28;19969;-74
2022/09/08 04:48:18;;;;;;;;;;;23.80;55.60;;;;;;5051960;28;19916;-74
2022/09/08 04:50:43;;;;;;;;;;;23.80;55.70;;;;;;5039758;28;19913;-74
2022/09/08 04:53:08;;;;;;;;;;;23.70;55.60;;;;;;5051014;28;19940;-73
2022/09/08 04:55:37;;;;;;;;;;;23.70;55.60;;;;;;5049263;28;19924;-74
2022/09/08 04:58:03;;;;;;;;;;;23.70;55.60;;;;;;5034104;28;20212;-74
2022/09/08 05:00:28;;;;;;;;;;;23.80;55.60;;;;;;5033282;28;19962;-75
2022/09/08 05:02:53;;;;;;;;;;;23.70;55.50;;;;;;5035864;28;19931;-74
2022/09/08 05:05:19;;;;;;;;;;;23.70;55.40;;;;;;5034696;28;19916;-74
2022/09/08 05:07:48;;;;;;;;;;;23.70;55.40;;;;;;5050623;28;19912;-75
2022/09/08 05:10:13;;;;;;;;;;;23.70;55.40;;;;;;5046520;28;20428;-74
2022/09/08 05:12:38;;;;;;;;;;;23.70;55.40;;;;;;5049684;28;19983;-74
2022/09/08 05:15:04;;;;;;;;;;;23.70;55.40;;;;;;5049949;28;19916;-74
2022/09/08 05:17:30;;;;;;;;;;;23.70;55.30;;;;;;5067086;28;19920;-73
2022/09/08 05:19:55;;;;;;;;;;;23.70;55.20;;;;;;5053268;28;20392;-75
2022/09/08 05:22:21;;;;;;;;;;;23.70;55.20;;;;;;5055154;28;19915;-75
2022/09/08 05:24:46;;;;;;;;;;;23.70;55.20;;;;;;5052248;28;19919;-74
2022/09/08 05:27:11;;;;;;;;;;;23.70;55.30;;;;;;5054093;28;19942;-74
2022/09/08 05:29:37;;;;;;;;;;;23.70;55.30;;;;;;5054134;28;20314;-74
2022/09/08 05:32:02;;;;;;;;;;;23.70;55.20;;;;;;5072986;28;19966;-75
2022/09/08 05:34:28;;;;;;;;;;;23.70;55.20;;;;;;5049053;28;19913;-75
2022/09/08 05:36:53;;;;;;;;;;;23.70;55.10;;;;;;5066080;28;20312;-75
2022/09/08 05:39:19;;;;;;;;;;;23.70;55.10;;;;;;5031991;28;20022;-74
2022/09/08 05:41:44;;;;;;;;;;;23.70;55.10;;;;;;5048369;28;19920;-73
2022/09/08 05:44:11;;;;;;;;;;;23.60;55.00;;;;;;5068991;28;19917;-74
2022/09/08 05:46:37;;;;;;;;;;;23.60;55.00;;;;;;5050302;28;19955;-75
2022/09/08 05:49:03;;;;;;;;;;;23.70;55.00;;;;;;5064685;28;19960;-74
2022/09/08 05:51:30;;;;;;;;;;;23.60;55.00;;;;;;5046855;28;19935;-74
2022/09/08 05:53:58;;;;;;;;;;;23.60;54.90;;;;;;5064169;28;19961;-74
2022/09/08 05:56:23;;;;;;;;;;;23.60;55.00;;;;;;5048686;28;20364;-74
2022/09/08 05:58:52;;;;;;;;;;;23.60;55.00;;;;;;5050860;28;19944;-74
2022/09/08 06:01:18;;;;;;;;;;;23.50;55.00;;;;;;5045618;28;19920;-74
2022/09/08 06:03:43;;;;;;;;;;;23.50;54.80;;;;;;5050459;28;19924;-74
2022/09/08 06:06:09;;;;;;;;;;;23.50;54.80;;;;;;5050408;28;20319;-74
2022/09/08 06:08:35;;;;;;;;;;;23.50;54.80;;;;;;5049558;28;19916;-73
2022/09/08 06:11:01;;;;;;;;;;;23.50;54.70;;;;;;5050351;28;19927;-74
2022/09/08 06:13:26;;;;;;;;;;;23.60;54.80;;;;;;5035905;28;19916;-75
2022/09/08 06:15:52;;;;;;;;;;;23.50;54.70;;;;;;5034127;28;19923;-74
2022/09/08 06:18:17;;;;;;;;;;;23.50;54.50;;;;;;5068232;28;19931;-75
2022/09/08 06:20:43;;;;;;;;;;;23.50;54.50;;;;;;5053258;28;20394;-75
2022/09/08 06:23:10;;;;;;;;;;;23.60;54.60;;;;;;5050094;28;19941;-75
2022/09/08 06:25:39;;;;;;;;;;;23.50;54.50;;;;;;5050344;28;19917;-75
2022/09/08 06:28:07;;;;;;;;;;;23.50;54.40;;;;;;5031160;28;19935;-75
2022/09/08 06:30:33;;;;;;;;;;;23.50;54.50;;;;;;5071632;28;20058;-75
2022/09/08 06:32:59;;;;;;;;;;;23.50;54.50;;;;;;5037244;28;20015;-74
2022/09/08 06:35:27;;;;;;;;;;;23.50;54.40;;;;;;5055562;28;20364;-74
2022/09/08 06:37:53;;;;;;;;;;;23.50;54.40;;;;;;5053821;28;20022;-74
2022/09/08 06:40:20;;;;;;;;;;;23.50;54.40;;;;;;5050465;28;19913;-74
2022/09/08 06:43:01;;;;;;;;;;;23.50;54.40;;;;;;5049928;28;19919;-74
2022/09/08 06:45:28;;;;;;;;;;;23.50;54.30;;;;;;5068315;28;19927;-74
2022/09/08 06:47:56;;;;;;;;;;;23.50;54.20;;;;;;5033304;28;19927;-73
2022/09/08 06:50:21;;;;;;;;;;;23.50;54.20;;;;;;5048267;28;19926;-74
2022/09/08 06:52:48;;;;;;;;;;;23.50;54.20;;;;;;5032016;28;19924;-74
2022/09/08 06:55:32;;;;;;;;;;;23.40;54.20;;;;;;5052223;28;19923;-74
2022/09/08 06:57:57;;;;;;;;;;;23.40;54.20;;;;;;5068715;28;19961;-74
2022/09/08 07:00:23;;;;;;;;;;;23.40;54.10;;;;;;5051958;28;19917;-74
2022/09/08 07:02:58;;;;;;;;;;;23.40;54.20;;;;;;5032845;28;19916;-75
2022/09/08 07:05:26;;;;;;;;;;;23.40;54.10;;;;;;5066460;28;20353;-74
2022/09/08 07:07:54;;;;;;;;;;;23.40;54.10;;;;;;5070832;28;20372;-74
2022/09/08 07:10:23;;;;;;;;;;;23.40;54.10;;;;;;5034450;28;19917;-74
2022/09/08 07:12:55;;;;;;;;;;;23.40;54.00;;;;;;5032364;28;20023;-75
2022/09/08 07:15:53;;;;;;;;;;;23.40;54.00;;;;;;5032034;28;19964;-75
2022/09/08 07:18:21;;;;;;;;;;;23.40;54.00;;;;;;5012833;28;19924;-74
2022/09/08 07:20:47;;;;;;;;;;;23.40;53.90;;;;;;5049550;28;19916;-74
2022/09/08 07:23:16;;;;;;;;;;;23.40;53.80;;;;;;5052105;28;19912;-74
2022/09/08 07:25:52;;;;;;;;;;;23.40;53.80;;;;;;5047607;28;19916;-75
2022/09/08 07:28:24;;;;;;;;;;;23.40;53.80;;;;;;5067880;28;19966;-74
2022/09/08 07:30:54;;;;;;;;;;;23.40;53.80;;;;;;5050751;28;19920;-75
2022/09/08 07:33:22;;;;;;;;;;;23.40;53.80;;;;;;5039306;28;19913;-74
2022/09/08 07:36:00;;;;;;;;;;;23.40;53.70;;;;;;5069416;28;19917;-74
2022/09/08 07:38:28;;;;;;;;;;;23.40;53.60;;;;;;5047481;28;19916;-75
2022/09/08 07:40:53;;;;;;;;;;;23.40;53.60;;;;;;5051888;28;19920;-74
2022/09/08 07:43:19;;;;;;;;;;;23.40;53.60;;;;;;5051692;28;20265;-74
2022/09/08 07:45:46;;;;;;;;;;;23.40;53.60;;;;;;5057226;28;19908;-74
2022/09/08 07:48:23;;;;;;;;;;;23.40;53.50;;;;;;5050570;28;19916;-75
2022/09/08 07:51:09;;;;;;;;;;;23.40;53.60;;;;;;5044431;28;19958;-74
2022/09/08 07:53:40;;;;;;;;;;;23.40;53.50;;;;;;5044866;28;19939;-74
2022/09/08 07:56:12;;;;;;;;;;;23.40;53.50;;;;;;5037250;28;19940;-74
2022/09/08 07:58:41;;;;;;;;;;;23.40;53.60;;;;;;5051086;28;19916;-74
2022/09/08 08:01:12;;;;;;;;;;;23.30;53.50;;;;;;5048125;28;19912;-74
2022/09/08 08:03:57;;;;;;;;;;;23.30;53.40;;;;;;5036839;28;19923;-74
2022/09/08 08:06:39;;;;;;;;;;;23.30;53.40;;;;;;5049490;28;20004;-74
2022/09/08 08:09:23;;;;;;;;;;;23.30;53.30;;;;;;5042365;28;20360;-74
2022/09/08 08:11:48;;;;;;;;;;;23.40;53.20;;;;;;5051553;28;19931;-74
2022/09/08 08:14:31;;;;;;;;;;;23.40;53.20;;;;;;5052385;28;20365;-74
2022/09/08 08:17:12;;;;;;;;;;;23.40;53.00;;;;;;5032763;28;20032;-74
2022/09/08 08:19:37;;;;;;;;;;;23.30;53.10;;;;;;5047699;28;19920;-73
2022/09/08 08:22:21;;;;;;;;;;;23.30;53.20;;;;;;5048624;28;20372;-74
2022/09/08 08:25:05;;;;;;;;;;;23.30;53.20;;;;;;5051111;28;19913;-75
2022/09/08 08:27:35;;;;;;;;;;;23.30;52.90;;;;;;5049834;28;19952;-75
2022/09/08 08:30:10;;;;;;;;;;;23.30;53.00;;;;;;5047594;28;19921;-74
2022/09/08 08:32:36;;;;;;;;;;;23.40;52.90;;;;;;5047419;28;22169;-74
2022/09/08 08:35:18;;;;;;;;;;;23.30;53.10;;;;;;5050836;28;20334;-74
2022/09/08 08:37:44;;;;;;;;;;;23.20;53.10;;;;;;5049468;28;19917;-74
2022/09/08 08:40:16;;;;;;;;;;;23.20;53.00;;;;;;5029839;28;19928;-73
2022/09/08 08:42:58;;;;;;;;;;;23.20;53.10;;;;;;5054949;28;19923;-74
2022/09/08 08:45:42;;;;;;;;;;;23.20;53.00;;;;;;5028709;28;19924;-74
2022/09/08 08:48:11;;;;;;;;;;;23.30;52.90;;;;;;5054044;28;19920;-74
2022/09/08 08:50:48;;;;;;;;;;;23.30;52.60;;;;;;5053148;28;19909;-74
2022/09/08 08:53:29;;;;;;;;;;;23.20;52.60;;;;;;5021790;28;20280;-74
2022/09/08 08:56:24;;;;;;;;;;;23.20;52.70;;;;;;5054926;28;19908;-74
2022/09/08 08:58:49;;;;;;;;;;;23.30;52.50;;;;;;5034505;28;20343;-75
2022/09/08 09:01:15;;;;;;;;;;;23.30;53.00;;;;;;5049293;28;19980;-74
2022/09/08 09:03:46;;;;;;;;;;;23.30;52.20;;;;;;5033404;28;20412;-74
2022/09/08 09:06:28;;;;;;;;;;;23.20;52.20;;;;;;5034981;28;20000;-74
2022/09/08 09:09:12;;;;;;;;;;;23.20;52.10;;;;;;5043560;28;19920;-74
2022/09/08 09:11:44;;;;;;;;;;;23.30;52.00;;;;;;5047303;28;19994;-74
2022/09/08 09:14:16;;;;;;;;;;;23.20;51.90;;;;;;5050902;28;20269;-74
2022/09/08 09:16:41;;;;;;;;;;;23.20;51.90;;;;;;5050202;28;19917;-74
2022/09/08 09:19:25;;;;;;;;;;;23.20;51.80;;;;;;5041865;28;20281;-74
2022/09/08 09:22:00;;;;;;;;;;;23.20;52.40;;;;;;5053504;28;19945;-74
2022/09/08 09:24:36;;;;;;;;;;;23.30;51.70;;;;;;5053593;28;20364;-74
2022/09/08 09:27:07;;;;;;;;;;;23.20;51.60;;;;;;5053831;28;20012;-74
2022/09/08 09:29:35;;;;;;;;;;;23.20;51.60;;;;;;5037336;28;20063;-74
2022/09/08 09:32:14;;;;;;;;;;;23.20;51.60;;;;;;5039365;28;19912;-74
2022/09/08 09:34:51;;;;;;;;;;;23.20;51.40;;;;;;5059669;28;19909;-75
2022/09/08 09:37:29;;;;;;;;;;;23.30;51.30;;;;;;5042094;28;19913;-74
2022/09/08 09:39:56;;;;;;;;;;;23.30;51.30;;;;;;5058006;28;19916;-74
2022/09/08 09:42:48;;;;;;;;;;;23.20;51.30;;;;;;5057989;28;19909;-74
2022/09/08 09:45:16;;;;;;;;;;;23.20;51.20;;;;;;5047538;28;19983;-74
2022/09/08 09:47:54;;;;;;;;;;;23.20;51.10;;;;;;5062355;28;19909;-74
2022/09/08 09:50:20;;;;;;;;;;;23.20;51.10;;;;;;5043470;28;19916;-74
2022/09/08 09:52:51;;;;;;;;;;;23.30;51.10;;;;;;5038671;28;19913;-74
2022/09/08 09:55:27;;;;;;;;;;;23.30;51.10;;;;;;5050528;28;19920;-73
2022/09/08 09:57:52;;;;;;;;;;;23.20;51.10;;;;;;5054002;28;19912;-74
2022/09/08 10:00:21;;;;;;;;;;;23.20;51.10;;;;;;5051828;28;20289;-74
2022/09/08 10:02:50;;;;;;;;;;;23.30;51.10;;;;;;5056765;28;19959;-74
2022/09/08 10:05:25;;;;;;;;;;;23.30;50.90;;;;;;5058414;28;19909;-73
2022/09/08 10:08:02;;;;;;;;;;;23.30;50.80;;;;;;5050797;28;20040;-74
2022/09/08 10:10:38;;;;;;;;;;;23.30;50.80;;;;;;5036382;28;19912;-75
2022/09/08 10:13:18;;;;;;;;;;;23.30;50.80;;;;;;5035378;28;20577;-74
2022/09/08 10:15:48;;;;;;;;;;;23.30;50.80;;;;;;5076478;28;19913;-75
2022/09/08 10:18:32;;;;;;;;;;;23.30;50.80;;;;;;5056780;28;19967;-74
2022/09/08 10:21:21;;;;;;;;;;;23.30;50.80;;;;;;5058042;28;19920;-74
2022/09/08 10:24:19;;;;;;;;;;;23.30;50.80;;;;;;5050965;28;20490;-75
2022/09/08 10:27:03;;;;;;;;;;;23.30;50.70;;;;;;5019030;28;19916;-75
2022/09/08 10:29:33;;;;;;;;;;;23.30;50.60;;;;;;5062570;28;19923;-74
2022/09/08 10:32:07;;;;;;;;;;;23.30;50.70;;;;;;5057470;28;19912;-73
2022/09/08 10:34:51;;;;;;;;;;;23.30;50.60;;;;;;5074392;28;19958;-74
2022/09/08 10:37:36;;;;;;;;;;;23.30;50.60;;;;;;5053029;28;19952;-74
2022/09/08 10:40:10;;;;;;;;;;;23.20;50.60;;;;;;5076390;28;19919;-74
2022/09/08 10:42:44;;;;;;;;;;;23.20;50.80;;;;;;5057522;28;20399;-75
2022/09/08 10:45:10;;;;;;;;;;;23.20;51.00;;;;;;5039097;28;19913;-74
2022/09/08 10:47:54;;;;;;;;;;;23.20;51.10;;;;;;5065943;28;19923;-74
2022/09/08 10:50:20;;;;;;;;;;;23.20;51.40;;;;;;5062060;28;20252;-74
2022/09/08 10:52:49;;;;;;;;;;;23.20;51.50;;;;;;5038654;28;19916;-75
2022/09/08 10:55:15;;;;;;;;;;;23.30;51.60;;;;;;5058538;28;19920;-74
2022/09/08 10:57:45;;;;;;;;;;;23.30;51.60;;;;;;5071435;28;19920;-73
2022/09/08 11:00:11;;;;;;;;;;;23.30;51.80;;;;;;5052128;28;20429;-74
2022/09/08 11:03:03;;;;;;;;;;;23.20;52.30;;;;;;5054428;28;19925;-75
2022/09/08 11:05:48;;;;;;;;;;;23.30;51.90;;;;;;5022659;28;19913;-75
2022/09/08 11:08:33;;;;;;;;;;;23.30;52.00;;;;;;5067981;28;19971;-74
2022/09/08 11:11:09;;;;;;;;;;;23.30;52.00;;;;;;5054362;28;19936;-74
2022/09/08 11:13:52;;;;;;;;;;;23.20;52.30;;;;;;5059218;28;19912;-74
2022/09/08 11:16:44;;;;;;;;;;;23.30;52.60;;;;;;5056438;28;19962;-74
2022/09/08 11:19:19;;;;;;;;;;;23.20;53.20;;;;;;5022264;28;19955;-74
2022/09/08 11:22:04;;;;;;;;;;;23.10;52.90;;;;;;5057744;28;19914;-74
2022/09/08 11:24:35;;;;;;;;;;;23.10;52.90;;;;;;5074776;28;20553;-74
2022/09/08 11:27:13;;;;;;;;;;;23.10;53.50;;;;;;5066524;28;20338;-74
2022/09/08 11:29:38;;;;;;;;;;;23.00;53.60;;;;;;5068362;28;20383;-75
2022/09/08 11:32:18;;;;;;;;;;;23.00;53.90;;;;;;5075439;28;19935;-75
2022/09/08 11:35:03;;;;;;;;;;;23.10;53.80;;;;;;5054126;28;19924;-74
2022/09/08 11:37:37;;;;;;;;;;;23.10;54.10;;;;;;5073628;28;19912;-73
2022/09/08 11:40:24;;;;;;;;;;;23.10;54.40;;;;;;5066283;28;20445;-74
2022/09/08 11:43:12;;;;;;;;;;;23.10;54.30;;;;;;5039049;28;20002;-74
2022/09/08 11:45:41;;;;;;;;;;;23.10;54.30;;;;;;5055939;28;20442;-75
2022/09/08 11:48:06;;;;;;;;;;;23.10;54.30;;;;;;5071362;28;19913;-74
2022/09/08 11:50:31;;;;;;;;;;;23.10;54.40;;;;;;5066540;28;19917;-73
2022/09/08 11:53:01;;;;;;;;;;;23.20;54.20;;;;;;5066872;28;19916;-74
2022/09/08 11:55:39;;;;;;;;;;;23.20;54.40;;;;;;5055616;28;19917;-74
2022/09/08 11:58:23;;;;;;;;;;;23.20;55.10;;;;;;5050833;28;19958;-74
2022/09/08 12:01:07;;;;;;;;;;;23.20;54.50;;;;;;5071346;28;20310;-74
2022/09/08 12:03:36;;;;;;;;;;;23.30;54.60;;;;;;5067468;28;19916;-75
2022/09/08 12:06:20;;;;;;;;;;;23.30;54.50;;;;;;5065086;28;19970;-74
2022/09/08 12:08:48;;;;;;;;;;;23.30;54.60;;;;;;5069305;28;20011;-73
2022/09/08 12:11:32;;;;;;;;;;;23.30;54.70;;;;;;5072867;28;19923;-74
2022/09/08 12:14:01;;;;;;;;;;;23.30;55.10;;;;;;5072888;28;20275;-73
2022/09/08 12:16:41;;;;;;;;;;;23.30;55.00;;;;;;5068925;28;20363;-74
2022/09/08 12:19:12;;;;;;;;;;;23.20;55.00;;;;;;5072937;28;19928;-74
2022/09/08 12:21:42;;;;;;;;;;;23.20;55.30;;;;;;5045229;28;21371;-73
2022/09/08 12:24:11;;;;;;;;;;;23.10;55.40;;;;;;5064967;28;19951;-74
2022/09/08 12:26:36;;;;;;;;;;;23.00;55.50;;;;;;5061291;28;19978;-73
2022/09/08 12:29:07;;;;;;;;;;;23.00;55.80;;;;;;5062432;28;21912;-74
2022/09/08 12:31:52;;;;;;;;;;;22.90;56.00;;;;;;5063038;28;20275;-74
2022/09/08 12:34:24;;;;;;;;;;;22.90;56.30;;;;;;5064904;28;19920;-74
2022/09/08 12:36:50;;;;;;;;;;;22.80;56.30;;;;;;5049518;28;19917;-74
2022/09/08 12:39:15;;;;;;;;;;;22.80;56.40;;;;;;5048255;28;19932;-73
2022/09/08 12:41:43;;;;;;;;;;;22.80;56.60;;;;;;5065638;28;19912;-74
2022/09/08 12:44:25;;;;;;;;;;;22.80;56.90;;;;;;5065981;28;19981;-74
2022/09/08 12:46:57;;;;;;;;;;;22.80;56.90;;;;;;5061809;28;19920;-74
2022/09/08 12:49:41;;;;;;;;;;;22.70;57.00;;;;;;5066923;28;20737;-74
2022/09/08 12:52:09;;;;;;;;;;;22.80;57.10;;;;;;5074233;28;19916;-75
2022/09/08 12:54:54;;;;;;;;;;;22.70;57.20;;;;;;5033989;28;19913;-75
2022/09/08 12:57:25;;;;;;;;;;;22.70;57.20;;;;;;5070944;28;19912;-74
2022/09/08 12:59:55;;;;;;;;;;;22.60;57.30;;;;;;5063394;28;19916;-75
2022/09/08 13:02:35;;;;;;;;;;;22.60;57.20;;;;;;5070972;28;20295;-75
2022/09/08 13:05:19;;;;;;;;;;;22.60;57.50;;;;;;5056185;28;19942;-74
2022/09/08 13:08:03;;;;;;;;;;;22.60;57.30;;;;;;5073106;28;19932;-74
2022/09/08 13:10:32;;;;;;;;;;;22.60;57.50;;;;;;5049930;28;20372;-74
2022/09/08 13:12:57;;;;;;;;;;;22.60;57.50;;;;;;5058586;28;19916;-73
2022/09/08 13:15:22;;;;;;;;;;;22.60;57.70;;;;;;5064168;28;19921;-73
2022/09/08 13:17:54;;;;;;;;;;;22.60;57.70;;;;;;5077172;28;19909;-74
2022/09/08 13:20:34;;;;;;;;;;;22.60;57.90;;;;;;5045711;28;19963;-74
2022/09/08 13:22:59;;;;;;;;;;;22.60;57.80;;;;;;5054903;28;19913;-74
2022/09/08 13:25:34;;;;;;;;;;;22.70;57.50;;;;;;5048443;28;19912;-74
2022/09/08 13:28:29;;;;;;;;;;;22.60;57.50;;;;;;5052979;28;19919;-74
2022/09/08 13:30:58;;;;;;;;;;;22.70;57.40;;;;;;5059821;28;20005;-73
2022/09/08 13:33:23;;;;;;;;;;;22.70;57.20;;;;;;5066528;28;20003;-74
2022/09/08 13:35:54;;;;;;;;;;;22.70;57.20;;;;;;5072902;28;20015;-74
2022/09/08 13:38:23;;;;;;;;;;;22.70;57.30;;;;;;5069585;28;20599;-73
2022/09/08 13:41:04;;;;;;;;;;;22.80;57.40;;;;;;5051940;28;19917;-74
2022/09/08 13:43:32;;;;;;;;;;;22.80;57.30;;;;;;5064377;28;20314;-73
2022/09/08 13:46:02;;;;;;;;;;;22.70;57.30;;;;;;5067751;28;19923;-74
2022/09/08 13:48:34;;;;;;;;;;;22.70;57.40;;;;;;5049638;28;19912;-73
2022/09/08 13:51:32;;;;;;;;;;;22.70;57.60;;;;;;5049618;28;19948;-72
2022/09/08 13:54:00;;;;;;;;;;;22.70;57.60;;;;;;5004352;28;19912;-73
2022/09/08 13:56:32;;;;;;;;;;;22.70;57.60;;;;;;5051945;28;19917;-72
2022/09/08 13:59:00;;;;;;;;;;;22.70;57.70;;;;;;5066846;28;19921;-73
2022/09/08 14:01:28;;;;;;;;;;;22.60;57.60;;;;;;5047097;28;20320;-74
2022/09/08 14:04:14;;;;;;;;;;;22.70;57.80;;;;;;5067920;28;20323;-72
2022/09/08 14:06:43;;;;;;;;;;;22.70;57.50;;;;;;5072530;28;19917;-74
2022/09/08 14:09:16;;;;;;;;;;;22.80;57.30;;;;;;5048956;28;20288;-74
2022/09/08 14:11:45;;;;;;;;;;;22.90;57.40;;;;;;5071015;28;19912;-74
2022/09/08 14:14:21;;;;;;;;;;;22.90;57.10;;;;;;5072013;28;19912;-74
2022/09/08 14:16:46;;;;;;;;;;;23.00;56.90;;;;;;5057847;28;19909;-73
2022/09/08 14:19:19;;;;;;;;;;;23.10;57.00;;;;;;5072127;28;20379;-74
2022/09/08 14:21:48;;;;;;;;;;;23.00;57.10;;;;;;5049896;28;19916;-73
2022/09/08 14:24:22;;;;;;;;;;;23.00;57.10;;;;;;5048885;28;19913;-73
2022/09/08 14:26:49;;;;;;;;;;;23.00;57.00;;;;;;5064271;28;19913;-74
2022/09/08 14:29:17;;;;;;;;;;;23.00;57.00;;;;;;5052512;28;19917;-74
2022/09/08 14:31:45;;;;;;;;;;;23.00;57.50;;;;;;5054485;28;19913;-73
2022/09/08 14:34:17;;;;;;;;;;;23.00;57.40;;;;;;5054246;28;19917;-74
2022/09/08 14:36:42;;;;;;;;;;;23.00;57.50;;;;;;5038715;28;19923;-74
2022/09/08 14:39:28;;;;;;;;;;;23.00;57.30;;;;;;5067286;28;19916;-74
2022/09/08 14:41:55;;;;;;;;;;;23.00;57.20;;;;;;5066718;28;20368;-74
2022/09/08 14:44:30;;;;;;;;;;;23.00;57.50;;;;;;5053421;28;19924;-74